sensor_id;sensor_type;location;lat;lon;timestamp;P1;durP1;ratioP1;P2;durP2;ratioP2
14984;SDS011;7588;62.368;25.902;2023-02-22T00:00:36;6.20;;;5.70;;
14984;SDS011;7588;62.368;25.902;2023-02-22T00:05:35;7.70;;;6.90;;
14984;SDS011;7588;62.368;25.902;2023-02-22T00:08:03;8.77;;;7.90;;
14984;SDS011;7588;62.368;25.902;2023-02-22T00:10:33;7.83;;;7.10;;
14984;SDS011;7588;62.368;25.902;2023-02-22T00:12:59;7.47;;;6.97;;
14984;SDS011;7588;62.368;25.902;2023-02-22T00:15:24;9.53;;;8.20;;
14984;SDS011;7588;62.368;25.902;2023-02-22T00:17:53;6.50;;;6.00;;
14984;SDS011;7588;62.368;25.902;2023-02-22T00:20:19;11.93;;;6.37;;
14984;SDS011;7588;62.368;25.902;2023-02-22T00:22:47;8.93;;;6.90;;
14984;SDS011;7588;62.368;25.902;2023-02-22T00:25:15;12.40;;;6.80;;
14984;SDS011;7588;62.368;25.902;2023-02-22T00:27:43;13.67;;;7.80;;
14984;SDS011;7588;62.368;25.902;2023-02-22T00:30:16;9.17;;;6.33;;
14984;SDS011;7588;62.368;25.902;2023-02-22T00:32:45;11.23;;;5.90;;
14984;SDS011;7588;62.368;25.902;2023-02-22T00:35:13;7.53;;;6.87;;
14984;SDS011;7588;62.368;25.902;2023-02-22T00:37:42;8.57;;;7.77;;
14984;SDS011;7588;62.368;25.902;2023-02-22T00:40:13;5.47;;;5.03;;
14984;SDS011;7588;62.368;25.902;2023-02-22T00:42:44;7.67;;;6.93;;
14984;SDS011;7588;62.368;25.902;2023-02-22T00:45:10;9.23;;;7.23;;
14984;SDS011;7588;62.368;25.902;2023-02-22T00:47:37;9.40;;;7.43;;
14984;SDS011;7588;62.368;25.902;2023-02-22T00:50:03;7.40;;;6.80;;
14984;SDS011;7588;62.368;25.902;2023-02-22T00:52:29;8.53;;;5.80;;
14984;SDS011;7588;62.368;25.902;2023-02-22T00:54:55;16.63;;;6.67;;
14984;SDS011;7588;62.368;25.902;2023-02-22T00:57:22;9.53;;;6.90;;
14984;SDS011;7588;62.368;25.902;2023-02-22T00:59:48;8.07;;;7.30;;
14984;SDS011;7588;62.368;25.902;2023-02-22T01:02:15;9.60;;;7.67;;
14984;SDS011;7588;62.368;25.902;2023-02-22T01:04:41;7.83;;;7.03;;
14984;SDS011;7588;62.368;25.902;2023-02-22T01:07:07;9.43;;;8.50;;
14984;SDS011;7588;62.368;25.902;2023-02-22T01:09:33;7.13;;;6.63;;
14984;SDS011;7588;62.368;25.902;2023-02-22T01:11:59;7.37;;;6.80;;
14984;SDS011;7588;62.368;25.902;2023-02-22T01:14:25;12.57;;;7.80;;
14984;SDS011;7588;62.368;25.902;2023-02-22T01:16:52;10.47;;;8.00;;
14984;SDS011;7588;62.368;25.902;2023-02-22T01:19:21;11.63;;;6.80;;
14984;SDS011;7588;62.368;25.902;2023-02-22T01:21:47;6.83;;;6.17;;
14984;SDS011;7588;62.368;25.902;2023-02-22T01:24:14;9.60;;;7.87;;
14984;SDS011;7588;62.368;25.902;2023-02-22T01:26:42;13.63;;;7.57;;
14984;SDS011;7588;62.368;25.902;2023-02-22T01:29:12;9.20;;;8.37;;
14984;SDS011;7588;62.368;25.902;2023-02-22T01:31:40;7.80;;;7.10;;
14984;SDS011;7588;62.368;25.902;2023-02-22T01:34:08;7.20;;;5.60;;
14984;SDS011;7588;62.368;25.902;2023-02-22T01:36:35;9.27;;;8.23;;
14984;SDS011;7588;62.368;25.902;2023-02-22T01:39:00;8.37;;;7.57;;
14984;SDS011;7588;62.368;25.902;2023-02-22T01:41:26;7.83;;;7.03;;
14984;SDS011;7588;62.368;25.902;2023-02-22T01:43:52;12.23;;;8.03;;
14984;SDS011;7588;62.368;25.902;2023-02-22T01:48:48;10.47;;;7.23;;
14984;SDS011;7588;62.368;25.902;2023-02-22T01:51:29;8.23;;;7.33;;
14984;SDS011;7588;62.368;25.902;2023-02-22T01:56:44;7.53;;;7.00;;
14984;SDS011;7588;62.368;25.902;2023-02-22T01:59:26;8.90;;;8.00;;
14984;SDS011;7588;62.368;25.902;2023-02-22T02:01:57;6.40;;;6.00;;
14984;SDS011;7588;62.368;25.902;2023-02-22T02:04:23;8.03;;;7.27;;
14984;SDS011;7588;62.368;25.902;2023-02-22T02:06:51;7.37;;;6.67;;
14984;SDS011;7588;62.368;25.902;2023-02-22T02:12:00;6.83;;;6.27;;
14984;SDS011;7588;62.368;25.902;2023-02-22T02:14:29;12.87;;;7.30;;
14984;SDS011;7588;62.368;25.902;2023-02-22T02:16:58;17.13;;;7.27;;
14984;SDS011;7588;62.368;25.902;2023-02-22T02:30:44;7.10;;;6.47;;
14984;SDS011;7588;62.368;25.902;2023-02-22T02:33:37;6.77;;;6.20;;
14984;SDS011;7588;62.368;25.902;2023-02-22T02:36:26;19.57;;;7.37;;
14984;SDS011;7588;62.368;25.902;2023-02-22T02:39:11;7.40;;;6.97;;
14984;SDS011;7588;62.368;25.902;2023-02-22T02:41:48;6.50;;;6.20;;
14984;SDS011;7588;62.368;25.902;2023-02-22T02:44:19;11.90;;;8.30;;
14984;SDS011;7588;62.368;25.902;2023-02-22T02:52:24;12.30;;;6.33;;
14984;SDS011;7588;62.368;25.902;2023-02-22T02:54:51;7.90;;;5.10;;
14984;SDS011;7588;62.368;25.902;2023-02-22T02:57:19;7.40;;;7.00;;
14984;SDS011;7588;62.368;25.902;2023-02-22T02:59:45;7.57;;;6.80;;
14984;SDS011;7588;62.368;25.902;2023-02-22T03:05:02;8.30;;;7.60;;
14984;SDS011;7588;62.368;25.902;2023-02-22T03:10:30;7.53;;;7.13;;
14984;SDS011;7588;62.368;25.902;2023-02-22T03:15:45;12.70;;;8.53;;
14984;SDS011;7588;62.368;25.902;2023-02-22T03:21:22;7.07;;;5.83;;
14984;SDS011;7588;62.368;25.902;2023-02-22T03:26:47;8.53;;;7.83;;
14984;SDS011;7588;62.368;25.902;2023-02-22T03:29:17;5.73;;;5.40;;
14984;SDS011;7588;62.368;25.902;2023-02-22T03:31:49;8.50;;;7.63;;
14984;SDS011;7588;62.368;25.902;2023-02-22T03:34:20;8.53;;;7.80;;
14984;SDS011;7588;62.368;25.902;2023-02-22T03:37:00;5.13;;;4.77;;
14984;SDS011;7588;62.368;25.902;2023-02-22T03:39:30;13.20;;;7.43;;
14984;SDS011;7588;62.368;25.902;2023-02-22T03:42:03;7.73;;;6.93;;
14984;SDS011;7588;62.368;25.902;2023-02-22T03:44:36;13.37;;;6.90;;
14984;SDS011;7588;62.368;25.902;2023-02-22T03:47:05;8.07;;;6.90;;
14984;SDS011;7588;62.368;25.902;2023-02-22T03:49:36;5.47;;;5.13;;
14984;SDS011;7588;62.368;25.902;2023-02-22T03:52:23;11.80;;;8.77;;
14984;SDS011;7588;62.368;25.902;2023-02-22T03:54:51;6.57;;;6.17;;
14984;SDS011;7588;62.368;25.902;2023-02-22T03:57:23;8.03;;;6.43;;
14984;SDS011;7588;62.368;25.902;2023-02-22T03:59:51;7.20;;;6.57;;
14984;SDS011;7588;62.368;25.902;2023-02-22T04:02:17;7.40;;;6.80;;
14984;SDS011;7588;62.368;25.902;2023-02-22T04:04:44;20.83;;;5.67;;
14984;SDS011;7588;62.368;25.902;2023-02-22T04:07:11;7.13;;;6.80;;
14984;SDS011;7588;62.368;25.902;2023-02-22T04:09:36;10.17;;;8.87;;
14984;SDS011;7588;62.368;25.902;2023-02-22T04:12:02;11.57;;;7.93;;
14984;SDS011;7588;62.368;25.902;2023-02-22T04:14:28;6.90;;;6.40;;
14984;SDS011;7588;62.368;25.902;2023-02-22T04:16:54;7.17;;;6.30;;
14984;SDS011;7588;62.368;25.902;2023-02-22T04:19:20;8.23;;;7.33;;
14984;SDS011;7588;62.368;25.902;2023-02-22T04:21:45;6.47;;;6.07;;
14984;SDS011;7588;62.368;25.902;2023-02-22T04:24:11;6.67;;;6.33;;
14984;SDS011;7588;62.368;25.902;2023-02-22T04:26:37;5.10;;;4.83;;
14984;SDS011;7588;62.368;25.902;2023-02-22T04:29:03;7.47;;;6.83;;
14984;SDS011;7588;62.368;25.902;2023-02-22T04:31:29;8.03;;;7.47;;
14984;SDS011;7588;62.368;25.902;2023-02-22T04:33:55;7.07;;;6.47;;
14984;SDS011;7588;62.368;25.902;2023-02-22T04:36:21;9.00;;;8.30;;
14984;SDS011;7588;62.368;25.902;2023-02-22T04:38:47;8.07;;;7.63;;
14984;SDS011;7588;62.368;25.902;2023-02-22T04:41:13;8.77;;;7.97;;
14984;SDS011;7588;62.368;25.902;2023-02-22T04:43:38;8.20;;;7.03;;
14984;SDS011;7588;62.368;25.902;2023-02-22T04:46:04;9.37;;;8.77;;
14984;SDS011;7588;62.368;25.902;2023-02-22T04:48:30;5.77;;;5.37;;
14984;SDS011;7588;62.368;25.902;2023-02-22T04:50:55;8.47;;;6.43;;
14984;SDS011;7588;62.368;25.902;2023-02-22T04:53:21;9.53;;;7.60;;
14984;SDS011;7588;62.368;25.902;2023-02-22T04:55:47;5.23;;;4.83;;
14984;SDS011;7588;62.368;25.902;2023-02-22T04:58:12;7.90;;;7.40;;
14984;SDS011;7588;62.368;25.902;2023-02-22T05:00:38;7.60;;;7.03;;
14984;SDS011;7588;62.368;25.902;2023-02-22T05:03:04;5.83;;;5.43;;
14984;SDS011;7588;62.368;25.902;2023-02-22T05:05:29;9.13;;;8.53;;
14984;SDS011;7588;62.368;25.902;2023-02-22T05:07:55;8.03;;;7.33;;
14984;SDS011;7588;62.368;25.902;2023-02-22T05:10:21;6.53;;;6.13;;
14984;SDS011;7588;62.368;25.902;2023-02-22T05:12:47;8.07;;;6.93;;
14984;SDS011;7588;62.368;25.902;2023-02-22T05:15:16;5.93;;;5.40;;
14984;SDS011;7588;62.368;25.902;2023-02-22T05:17:43;7.70;;;6.57;;
14984;SDS011;7588;62.368;25.902;2023-02-22T05:20:14;9.83;;;9.00;;
14984;SDS011;7588;62.368;25.902;2023-02-22T05:22:54;6.80;;;5.03;;
14984;SDS011;7588;62.368;25.902;2023-02-22T05:25:21;9.03;;;6.77;;
14984;SDS011;7588;62.368;25.902;2023-02-22T05:27:51;10.10;;;7.70;;
14984;SDS011;7588;62.368;25.902;2023-02-22T05:30:19;9.23;;;8.37;;
14984;SDS011;7588;62.368;25.902;2023-02-22T05:32:48;10.37;;;6.80;;
14984;SDS011;7588;62.368;25.902;2023-02-22T05:35:14;27.00;;;7.77;;
14984;SDS011;7588;62.368;25.902;2023-02-22T05:37:40;8.20;;;7.40;;
14984;SDS011;7588;62.368;25.902;2023-02-22T05:40:06;15.50;;;9.77;;
14984;SDS011;7588;62.368;25.902;2023-02-22T05:42:32;10.87;;;8.20;;
14984;SDS011;7588;62.368;25.902;2023-02-22T05:44:58;7.17;;;6.53;;
14984;SDS011;7588;62.368;25.902;2023-02-22T05:47:25;7.13;;;6.60;;
14984;SDS011;7588;62.368;25.902;2023-02-22T05:49:51;7.43;;;6.77;;
14984;SDS011;7588;62.368;25.902;2023-02-22T05:52:16;8.17;;;7.60;;
14984;SDS011;7588;62.368;25.902;2023-02-22T05:54:42;13.13;;;7.83;;
14984;SDS011;7588;62.368;25.902;2023-02-22T05:57:08;9.40;;;7.00;;
14984;SDS011;7588;62.368;25.902;2023-02-22T05:59:33;5.97;;;5.57;;
14984;SDS011;7588;62.368;25.902;2023-02-22T06:01:59;9.67;;;8.67;;
14984;SDS011;7588;62.368;25.902;2023-02-22T06:04:25;10.60;;;8.13;;
14984;SDS011;7588;62.368;25.902;2023-02-22T06:06:51;12.80;;;7.73;;
14984;SDS011;7588;62.368;25.902;2023-02-22T06:09:17;7.13;;;6.63;;
14984;SDS011;7588;62.368;25.902;2023-02-22T06:11:43;8.53;;;6.53;;
14984;SDS011;7588;62.368;25.902;2023-02-22T06:14:08;8.57;;;6.50;;
14984;SDS011;7588;62.368;25.902;2023-02-22T06:16:34;10.53;;;6.50;;
14984;SDS011;7588;62.368;25.902;2023-02-22T06:19:00;7.10;;;6.63;;
14984;SDS011;7588;62.368;25.902;2023-02-22T06:21:26;7.70;;;6.93;;
14984;SDS011;7588;62.368;25.902;2023-02-22T06:23:52;9.37;;;8.70;;
14984;SDS011;7588;62.368;25.902;2023-02-22T06:26:17;7.63;;;6.10;;
14984;SDS011;7588;62.368;25.902;2023-02-22T06:28:46;9.77;;;7.43;;
14984;SDS011;7588;62.368;25.902;2023-02-22T06:31:12;7.27;;;6.47;;
14984;SDS011;7588;62.368;25.902;2023-02-22T06:33:38;8.00;;;7.30;;
14984;SDS011;7588;62.368;25.902;2023-02-22T06:36:04;7.53;;;6.93;;
14984;SDS011;7588;62.368;25.902;2023-02-22T06:38:30;9.40;;;8.27;;
14984;SDS011;7588;62.368;25.902;2023-02-22T06:40:56;9.40;;;8.40;;
14984;SDS011;7588;62.368;25.902;2023-02-22T06:43:22;8.20;;;7.50;;
14984;SDS011;7588;62.368;25.902;2023-02-22T06:45:51;10.73;;;9.70;;
14984;SDS011;7588;62.368;25.902;2023-02-22T06:48:17;9.70;;;9.00;;
14984;SDS011;7588;62.368;25.902;2023-02-22T06:50:43;20.23;;;11.30;;
14984;SDS011;7588;62.368;25.902;2023-02-22T06:53:08;9.20;;;8.50;;
14984;SDS011;7588;62.368;25.902;2023-02-22T06:55:34;7.63;;;6.83;;
14984;SDS011;7588;62.368;25.902;2023-02-22T06:58:00;12.27;;;6.87;;
14984;SDS011;7588;62.368;25.902;2023-02-22T07:00:28;17.20;;;7.90;;
14984;SDS011;7588;62.368;25.902;2023-02-22T07:02:54;22.00;;;7.60;;
14984;SDS011;7588;62.368;25.902;2023-02-22T07:05:21;6.80;;;6.13;;
14984;SDS011;7588;62.368;25.902;2023-02-22T07:07:49;10.07;;;8.90;;
14984;SDS011;7588;62.368;25.902;2023-02-22T07:12:42;10.33;;;7.00;;
14984;SDS011;7588;62.368;25.902;2023-02-22T07:15:08;8.20;;;7.50;;
14984;SDS011;7588;62.368;25.902;2023-02-22T07:17:34;7.40;;;6.70;;
14984;SDS011;7588;62.368;25.902;2023-02-22T07:20:00;9.80;;;7.87;;
14984;SDS011;7588;62.368;25.902;2023-02-22T07:22:25;12.00;;;7.50;;
14984;SDS011;7588;62.368;25.902;2023-02-22T07:24:51;10.03;;;9.03;;
14984;SDS011;7588;62.368;25.902;2023-02-22T07:27:20;8.47;;;7.70;;
14984;SDS011;7588;62.368;25.902;2023-02-22T07:29:46;8.77;;;6.83;;
14984;SDS011;7588;62.368;25.902;2023-02-22T07:32:12;11.57;;;8.63;;
14984;SDS011;7588;62.368;25.902;2023-02-22T07:34:38;10.63;;;9.63;;
14984;SDS011;7588;62.368;25.902;2023-02-22T07:37:05;7.43;;;6.80;;
14984;SDS011;7588;62.368;25.902;2023-02-22T07:39:31;8.10;;;6.93;;
14984;SDS011;7588;62.368;25.902;2023-02-22T07:41:58;10.70;;;7.03;;
14984;SDS011;7588;62.368;25.902;2023-02-22T07:44:24;13.73;;;9.47;;
14984;SDS011;7588;62.368;25.902;2023-02-22T07:46:50;21.73;;;8.90;;
14984;SDS011;7588;62.368;25.902;2023-02-22T07:49:15;18.33;;;12.87;;
14984;SDS011;7588;62.368;25.902;2023-02-22T07:51:41;24.00;;;7.90;;
14984;SDS011;7588;62.368;25.902;2023-02-22T07:54:07;10.27;;;9.13;;
14984;SDS011;7588;62.368;25.902;2023-02-22T07:56:33;11.00;;;10.00;;
14984;SDS011;7588;62.368;25.902;2023-02-22T07:58:58;11.30;;;8.40;;
14984;SDS011;7588;62.368;25.902;2023-02-22T08:01:25;11.87;;;7.77;;
14984;SDS011;7588;62.368;25.902;2023-02-22T08:03:51;14.40;;;10.67;;
14984;SDS011;7588;62.368;25.902;2023-02-22T08:06:17;23.27;;;12.07;;
14984;SDS011;7588;62.368;25.902;2023-02-22T08:08:45;11.63;;;9.00;;
14984;SDS011;7588;62.368;25.902;2023-02-22T08:11:10;17.70;;;11.10;;
14984;SDS011;7588;62.368;25.902;2023-02-22T08:13:37;17.90;;;10.17;;
14984;SDS011;7588;62.368;25.902;2023-02-22T08:16:03;27.13;;;15.00;;
14984;SDS011;7588;62.368;25.902;2023-02-22T08:18:29;27.93;;;16.07;;
14984;SDS011;7588;62.368;25.902;2023-02-22T08:20:55;29.33;;;14.03;;
14984;SDS011;7588;62.368;25.902;2023-02-22T08:23:21;22.40;;;12.90;;
14984;SDS011;7588;62.368;25.902;2023-02-22T08:25:49;21.87;;;14.60;;
14984;SDS011;7588;62.368;25.902;2023-02-22T08:28:16;29.83;;;17.93;;
14984;SDS011;7588;62.368;25.902;2023-02-22T08:30:45;29.70;;;18.23;;
14984;SDS011;7588;62.368;25.902;2023-02-22T08:33:12;30.80;;;15.17;;
14984;SDS011;7588;62.368;25.902;2023-02-22T08:35:40;29.30;;;15.83;;
14984;SDS011;7588;62.368;25.902;2023-02-22T08:38:07;30.67;;;16.60;;
14984;SDS011;7588;62.368;25.902;2023-02-22T08:40:39;26.17;;;15.33;;
14984;SDS011;7588;62.368;25.902;2023-02-22T08:43:04;25.87;;;16.07;;
14984;SDS011;7588;62.368;25.902;2023-02-22T08:45:30;30.53;;;15.83;;
14984;SDS011;7588;62.368;25.902;2023-02-22T08:47:57;25.73;;;13.77;;
14984;SDS011;7588;62.368;25.902;2023-02-22T08:50:24;19.87;;;13.50;;
14984;SDS011;7588;62.368;25.902;2023-02-22T08:52:52;33.50;;;14.93;;
14984;SDS011;7588;62.368;25.902;2023-02-22T08:55:23;31.23;;;15.57;;
14984;SDS011;7588;62.368;25.902;2023-02-22T08:57:50;24.53;;;15.70;;
14984;SDS011;7588;62.368;25.902;2023-02-22T09:00:16;29.53;;;16.73;;
14984;SDS011;7588;62.368;25.902;2023-02-22T09:02:43;28.57;;;13.83;;
14984;SDS011;7588;62.368;25.902;2023-02-22T09:05:09;23.90;;;14.03;;
14984;SDS011;7588;62.368;25.902;2023-02-22T09:07:35;20.30;;;12.03;;
14984;SDS011;7588;62.368;25.902;2023-02-22T09:10:01;23.73;;;13.63;;
14984;SDS011;7588;62.368;25.902;2023-02-22T09:12:27;23.20;;;13.43;;
14984;SDS011;7588;62.368;25.902;2023-02-22T09:14:52;29.77;;;14.30;;
14984;SDS011;7588;62.368;25.902;2023-02-22T09:17:18;19.03;;;12.10;;
14984;SDS011;7588;62.368;25.902;2023-02-22T09:19:44;20.67;;;10.80;;
14984;SDS011;7588;62.368;25.902;2023-02-22T09:22:09;29.50;;;13.10;;
14984;SDS011;7588;62.368;25.902;2023-02-22T09:24:35;28.13;;;15.00;;
14984;SDS011;7588;62.368;25.902;2023-02-22T09:27:01;19.97;;;13.20;;
14984;SDS011;7588;62.368;25.902;2023-02-22T09:29:28;25.87;;;12.40;;
14984;SDS011;7588;62.368;25.902;2023-02-22T09:31:54;16.77;;;11.23;;
14984;SDS011;7588;62.368;25.902;2023-02-22T09:34:21;19.20;;;12.43;;
14984;SDS011;7588;62.368;25.902;2023-02-22T09:36:53;22.07;;;12.93;;
14984;SDS011;7588;62.368;25.902;2023-02-22T09:39:21;25.93;;;13.10;;
14984;SDS011;7588;62.368;25.902;2023-02-22T09:46:54;22.97;;;12.43;;
14984;SDS011;7588;62.368;25.902;2023-02-22T09:49:38;26.77;;;15.23;;
14984;SDS011;7588;62.368;25.902;2023-02-22T09:52:35;20.30;;;12.33;;
14984;SDS011;7588;62.368;25.902;2023-02-22T09:55:09;23.17;;;14.00;;
14984;SDS011;7588;62.368;25.902;2023-02-22T09:57:49;20.33;;;11.87;;
14984;SDS011;7588;62.368;25.902;2023-02-22T10:00:40;20.40;;;11.67;;
14984;SDS011;7588;62.368;25.902;2023-02-22T10:03:23;18.50;;;11.80;;
14984;SDS011;7588;62.368;25.902;2023-02-22T10:06:13;23.60;;;12.37;;
14984;SDS011;7588;62.368;25.902;2023-02-22T10:08:45;24.33;;;13.67;;
14984;SDS011;7588;62.368;25.902;2023-02-22T10:13:59;21.40;;;13.43;;
14984;SDS011;7588;62.368;25.902;2023-02-22T10:16:42;22.73;;;13.40;;
14984;SDS011;7588;62.368;25.902;2023-02-22T10:22:41;24.23;;;11.93;;
14984;SDS011;7588;62.368;25.902;2023-02-22T10:25:16;22.57;;;11.73;;
14984;SDS011;7588;62.368;25.902;2023-02-22T10:27:46;23.30;;;11.93;;
14984;SDS011;7588;62.368;25.902;2023-02-22T10:30:23;19.43;;;12.10;;
14984;SDS011;7588;62.368;25.902;2023-02-22T10:35:25;17.03;;;11.40;;
14984;SDS011;7588;62.368;25.902;2023-02-22T10:40:43;22.17;;;13.00;;
14984;SDS011;7588;62.368;25.902;2023-02-22T10:43:24;18.20;;;12.60;;
14984;SDS011;7588;62.368;25.902;2023-02-22T10:45:51;25.67;;;12.27;;
14984;SDS011;7588;62.368;25.902;2023-02-22T10:48:20;20.63;;;12.00;;
14984;SDS011;7588;62.368;25.902;2023-02-22T10:50:47;21.60;;;12.00;;
14984;SDS011;7588;62.368;25.902;2023-02-22T10:53:14;22.30;;;11.77;;
14984;SDS011;7588;62.368;25.902;2023-02-22T10:58:46;22.43;;;12.23;;
14984;SDS011;7588;62.368;25.902;2023-02-22T11:01:32;21.67;;;11.93;;
14984;SDS011;7588;62.368;25.902;2023-02-22T11:04:17;19.43;;;11.27;;
14984;SDS011;7588;62.368;25.902;2023-02-22T11:06:46;24.37;;;15.50;;
14984;SDS011;7588;62.368;25.902;2023-02-22T11:09:17;22.63;;;11.80;;
14984;SDS011;7588;62.368;25.902;2023-02-22T11:11:48;18.70;;;11.90;;
14984;SDS011;7588;62.368;25.902;2023-02-22T11:14:30;17.20;;;12.67;;
14984;SDS011;7588;62.368;25.902;2023-02-22T11:16:57;24.07;;;12.30;;
14984;SDS011;7588;62.368;25.902;2023-02-22T11:19:25;18.30;;;11.83;;
14984;SDS011;7588;62.368;25.902;2023-02-22T11:21:58;18.83;;;10.07;;
14984;SDS011;7588;62.368;25.902;2023-02-22T11:24:45;16.83;;;11.10;;
14984;SDS011;7588;62.368;25.902;2023-02-22T11:30:19;24.47;;;12.37;;
14984;SDS011;7588;62.368;25.902;2023-02-22T11:32:56;22.27;;;11.30;;
14984;SDS011;7588;62.368;25.902;2023-02-22T11:38:41;20.50;;;10.90;;
14984;SDS011;7588;62.368;25.902;2023-02-22T11:41:28;24.13;;;12.57;;
14984;SDS011;7588;62.368;25.902;2023-02-22T11:44:10;22.70;;;11.47;;
14984;SDS011;7588;62.368;25.902;2023-02-22T11:46:39;18.63;;;12.73;;
14984;SDS011;7588;62.368;25.902;2023-02-22T11:49:10;19.97;;;12.10;;
14984;SDS011;7588;62.368;25.902;2023-02-22T11:51:50;18.10;;;10.40;;
14984;SDS011;7588;62.368;25.902;2023-02-22T12:02:58;21.03;;;11.37;;
14984;SDS011;7588;62.368;25.902;2023-02-22T12:08:39;19.73;;;11.77;;
14984;SDS011;7588;62.368;25.902;2023-02-22T12:11:13;18.13;;;11.03;;
14984;SDS011;7588;62.368;25.902;2023-02-22T12:19:34;18.80;;;11.10;;
14984;SDS011;7588;62.368;25.902;2023-02-22T12:22:07;16.20;;;11.50;;
14984;SDS011;7588;62.368;25.902;2023-02-22T12:24:48;17.07;;;11.17;;
14984;SDS011;7588;62.368;25.902;2023-02-22T12:27:24;19.43;;;11.30;;
14984;SDS011;7588;62.368;25.902;2023-02-22T12:30:17;20.40;;;11.50;;
14984;SDS011;7588;62.368;25.902;2023-02-22T12:32:56;18.50;;;11.63;;
14984;SDS011;7588;62.368;25.902;2023-02-22T12:35:27;16.47;;;10.43;;
14984;SDS011;7588;62.368;25.902;2023-02-22T12:38:04;19.00;;;11.87;;
14984;SDS011;7588;62.368;25.902;2023-02-22T12:41:04;17.63;;;10.70;;
14984;SDS011;7588;62.368;25.902;2023-02-22T12:43:48;17.77;;;11.13;;
14984;SDS011;7588;62.368;25.902;2023-02-22T12:46:51;20.97;;;12.77;;
14984;SDS011;7588;62.368;25.902;2023-02-22T12:52:47;18.73;;;11.63;;
14984;SDS011;7588;62.368;25.902;2023-02-22T12:55:53;19.13;;;10.60;;
14984;SDS011;7588;62.368;25.902;2023-02-22T13:02:11;18.60;;;10.83;;
14984;SDS011;7588;62.368;25.902;2023-02-22T13:04:50;17.77;;;11.33;;
14984;SDS011;7588;62.368;25.902;2023-02-22T13:07:23;14.07;;;10.20;;
14984;SDS011;7588;62.368;25.902;2023-02-22T13:18:36;18.83;;;11.00;;
14984;SDS011;7588;62.368;25.902;2023-02-22T13:27:22;24.03;;;11.73;;
14984;SDS011;7588;62.368;25.902;2023-02-22T13:29:58;22.47;;;12.37;;
14984;SDS011;7588;62.368;25.902;2023-02-22T13:35:08;18.27;;;11.40;;
14984;SDS011;7588;62.368;25.902;2023-02-22T13:40:51;21.57;;;12.57;;
14984;SDS011;7588;62.368;25.902;2023-02-22T13:43:26;18.93;;;12.73;;
14984;SDS011;7588;62.368;25.902;2023-02-22T13:54:02;23.73;;;13.00;;
14984;SDS011;7588;62.368;25.902;2023-02-22T13:56:43;36.03;;;20.20;;
14984;SDS011;7588;62.368;25.902;2023-02-22T14:02:05;27.10;;;15.30;;
14984;SDS011;7588;62.368;25.902;2023-02-22T14:04:33;22.10;;;13.00;;
14984;SDS011;7588;62.368;25.902;2023-02-22T14:15:17;21.13;;;11.87;;
14984;SDS011;7588;62.368;25.902;2023-02-22T14:22:44;17.77;;;11.03;;
14984;SDS011;7588;62.368;25.902;2023-02-22T14:25:31;19.50;;;11.83;;
14984;SDS011;7588;62.368;25.902;2023-02-22T14:28:08;20.83;;;11.87;;
14984;SDS011;7588;62.368;25.902;2023-02-22T14:31:07;24.30;;;14.87;;
14984;SDS011;7588;62.368;25.902;2023-02-22T14:36:32;24.33;;;12.83;;
14984;SDS011;7588;62.368;25.902;2023-02-22T14:39:21;19.07;;;13.13;;
14984;SDS011;7588;62.368;25.902;2023-02-22T14:42:01;23.50;;;11.70;;
14984;SDS011;7588;62.368;25.902;2023-02-22T14:44:33;20.83;;;12.07;;
14984;SDS011;7588;62.368;25.902;2023-02-22T14:47:06;19.63;;;12.20;;
14984;SDS011;7588;62.368;25.902;2023-02-22T14:49:39;19.43;;;12.00;;
14984;SDS011;7588;62.368;25.902;2023-02-22T14:52:16;23.87;;;12.53;;
14984;SDS011;7588;62.368;25.902;2023-02-22T14:54:51;21.70;;;11.47;;
14984;SDS011;7588;62.368;25.902;2023-02-22T14:57:24;20.20;;;10.20;;
14984;SDS011;7588;62.368;25.902;2023-02-22T15:00:04;18.67;;;11.43;;
14984;SDS011;7588;62.368;25.902;2023-02-22T15:03:01;23.73;;;12.20;;
14984;SDS011;7588;62.368;25.902;2023-02-22T15:05:29;22.23;;;12.23;;
14984;SDS011;7588;62.368;25.902;2023-02-22T15:08:03;28.50;;;13.03;;
14984;SDS011;7588;62.368;25.902;2023-02-22T15:13:15;19.37;;;11.13;;
14984;SDS011;7588;62.368;25.902;2023-02-22T15:15:48;21.70;;;12.43;;
14984;SDS011;7588;62.368;25.902;2023-02-22T15:20:57;20.07;;;12.20;;
14984;SDS011;7588;62.368;25.902;2023-02-22T15:23:29;23.97;;;12.73;;
14984;SDS011;7588;62.368;25.902;2023-02-22T15:26:05;20.83;;;11.30;;
14984;SDS011;7588;62.368;25.902;2023-02-22T15:28:31;21.20;;;12.10;;
14984;SDS011;7588;62.368;25.902;2023-02-22T15:36:57;25.23;;;14.03;;
14984;SDS011;7588;62.368;25.902;2023-02-22T15:39:36;20.30;;;10.10;;
14984;SDS011;7588;62.368;25.902;2023-02-22T15:42:11;18.13;;;12.53;;
14984;SDS011;7588;62.368;25.902;2023-02-22T15:44:53;22.50;;;13.30;;
14984;SDS011;7588;62.368;25.902;2023-02-22T15:47:23;27.60;;;13.27;;
14984;SDS011;7588;62.368;25.902;2023-02-22T15:52:46;22.10;;;12.80;;
14984;SDS011;7588;62.368;25.902;2023-02-22T15:55:30;19.97;;;10.30;;
14984;SDS011;7588;62.368;25.902;2023-02-22T16:00:39;20.93;;;12.53;;
14984;SDS011;7588;62.368;25.902;2023-02-22T16:03:07;26.23;;;13.23;;
14984;SDS011;7588;62.368;25.902;2023-02-22T16:05:37;22.47;;;12.57;;
14984;SDS011;7588;62.368;25.902;2023-02-22T16:08:39;20.53;;;12.37;;
14984;SDS011;7588;62.368;25.902;2023-02-22T16:11:13;16.87;;;12.10;;
14984;SDS011;7588;62.368;25.902;2023-02-22T16:13:50;17.73;;;11.03;;
14984;SDS011;7588;62.368;25.902;2023-02-22T16:18:46;31.70;;;13.30;;
14984;SDS011;7588;62.368;25.902;2023-02-22T16:21:14;18.03;;;12.67;;
14984;SDS011;7588;62.368;25.902;2023-02-22T16:23:45;24.00;;;13.60;;
14984;SDS011;7588;62.368;25.902;2023-02-22T16:26:19;21.40;;;13.00;;
14984;SDS011;7588;62.368;25.902;2023-02-22T16:31:24;22.60;;;10.77;;
14984;SDS011;7588;62.368;25.902;2023-02-22T16:33:52;23.47;;;14.60;;
14984;SDS011;7588;62.368;25.902;2023-02-22T16:36:19;26.30;;;13.20;;
14984;SDS011;7588;62.368;25.902;2023-02-22T16:38:47;21.30;;;11.70;;
14984;SDS011;7588;62.368;25.902;2023-02-22T16:41:16;24.47;;;12.57;;
14984;SDS011;7588;62.368;25.902;2023-02-22T16:43:44;23.10;;;13.20;;
14984;SDS011;7588;62.368;25.902;2023-02-22T16:46:14;23.07;;;13.13;;
14984;SDS011;7588;62.368;25.902;2023-02-22T16:48:42;20.40;;;11.53;;
14984;SDS011;7588;62.368;25.902;2023-02-22T16:51:32;22.50;;;13.20;;
14984;SDS011;7588;62.368;25.902;2023-02-22T16:54:03;20.77;;;12.70;;
14984;SDS011;7588;62.368;25.902;2023-02-22T16:56:29;22.80;;;12.47;;
14984;SDS011;7588;62.368;25.902;2023-02-22T16:58:57;17.30;;;11.57;;
14984;SDS011;7588;62.368;25.902;2023-02-22T17:01:26;21.93;;;11.23;;
14984;SDS011;7588;62.368;25.902;2023-02-22T17:03:52;16.13;;;10.03;;
14984;SDS011;7588;62.368;25.902;2023-02-22T17:06:18;13.97;;;9.10;;
14984;SDS011;7588;62.368;25.902;2023-02-22T17:08:44;15.23;;;9.13;;
14984;SDS011;7588;62.368;25.902;2023-02-22T17:11:11;20.70;;;11.70;;
14984;SDS011;7588;62.368;25.902;2023-02-22T17:13:38;18.30;;;11.23;;
14984;SDS011;7588;62.368;25.902;2023-02-22T17:16:09;13.80;;;9.03;;
14984;SDS011;7588;62.368;25.902;2023-02-22T17:18:38;11.67;;;9.53;;
14984;SDS011;7588;62.368;25.902;2023-02-22T17:21:04;9.67;;;8.13;;
14984;SDS011;7588;62.368;25.902;2023-02-22T17:23:31;16.07;;;8.93;;
14984;SDS011;7588;62.368;25.902;2023-02-22T17:25:58;17.87;;;11.87;;
14984;SDS011;7588;62.368;25.902;2023-02-22T17:28:28;10.60;;;7.67;;
14984;SDS011;7588;62.368;25.902;2023-02-22T17:30:55;20.67;;;9.07;;
14984;SDS011;7588;62.368;25.902;2023-02-22T17:33:25;15.63;;;11.10;;
14984;SDS011;7588;62.368;25.902;2023-02-22T17:35:54;22.83;;;13.00;;